createdAt,value
2019-03-21T00:01:31.829Z,103298.19
2019-03-21T00:04:12.173Z,103306.62
2019-03-21T00:06:40.784Z,103307.14
2019-03-21T00:09:11.683Z,103304.91
2019-03-21T00:12:00.532Z,103301.25
2019-03-21T00:14:44.583Z,103306.16
2019-03-21T00:17:19.159Z,103305.42
2019-03-21T00:19:47.638Z,103306.69
2019-03-21T00:22:16.228Z,103309.16
2019-03-21T00:24:45.661Z,103310.52
2019-03-21T00:27:14.254Z,103310.89
2019-03-21T00:29:42.827Z,103324.33
2019-03-21T00:32:11.422Z,103322.38
2019-03-21T00:34:45.379Z,103326.73
2019-03-21T00:37:13.972Z,103317.38
2019-03-21T00:39:42.583Z,103315.92
2019-03-21T00:42:11.162Z,103316.09
2019-03-21T00:44:39.730Z,103311.54
2019-03-21T00:47:08.185Z,103313.89
2019-03-21T00:49:36.662Z,103309.30
2019-03-21T00:52:05.270Z,103311.19
2019-03-21T00:54:33.797Z,103319.23
2019-03-21T00:57:02.393Z,103318.94
2019-03-21T00:59:31.022Z,103315.33
2019-03-21T01:02:00.582Z,103316.17
2019-03-21T01:04:29.497Z,103315.92
2019-03-21T01:06:58.086Z,103305.00
2019-03-21T01:09:26.722Z,103305.88
2019-03-21T01:11:55.271Z,103303.00
2019-03-21T01:14:29.790Z,103304.91
2019-03-21T01:16:54.255Z,103303.52
2019-03-21T01:19:22.793Z,103308.59
2019-03-21T01:21:51.400Z,103305.98
2019-03-21T01:24:19.867Z,103305.50
2019-03-21T01:26:48.535Z,103301.20
2019-03-21T01:29:17.072Z,103299.46
2019-03-21T01:31:45.544Z,103300.43
2019-03-21T01:34:14.112Z,103299.50
2019-03-21T01:36:42.692Z,103295.95
2019-03-21T01:39:11.202Z,103297.12
2019-03-21T01:41:39.848Z,103297.20
2019-03-21T01:44:08.382Z,103296.02
2019-03-21T01:46:36.948Z,103298.16
2019-03-21T01:49:05.614Z,103295.81
2019-03-21T01:51:34.227Z,103292.42
2019-03-21T01:54:02.855Z,103295.08
2019-03-21T01:56:31.767Z,103289.48
2019-03-21T01:59:00.309Z,103290.11
2019-03-21T02:01:28.927Z,103283.30
2019-03-21T02:03:57.462Z,103286.44
2019-03-21T02:06:25.991Z,103287.59
2019-03-21T02:08:54.814Z,103283.63
2019-03-21T02:11:23.414Z,103279.16
2019-03-21T02:13:51.997Z,103280.58
2019-03-21T02:16:20.542Z,103283.03
2019-03-21T02:18:49.166Z,103280.27
2019-03-21T02:21:18.837Z,103279.67
2019-03-21T02:23:47.335Z,103271.25
2019-03-21T02:26:15.962Z,103271.11
2019-03-21T02:28:44.531Z,103267.83
2019-03-21T02:31:13.172Z,103264.13
2019-03-21T02:33:44.483Z,103260.27
2019-03-21T02:36:14.217Z,103265.78
2019-03-21T02:38:42.781Z,103265.05
2019-03-21T02:41:14.323Z,103265.38
2019-03-21T02:43:42.793Z,103261.62
2019-03-21T02:46:11.307Z,103257.94
2019-03-21T02:48:39.870Z,103262.97
2019-03-21T02:51:08.791Z,103261.98
2019-03-21T02:53:37.356Z,103259.59
2019-03-21T02:56:09.221Z,103266.48
2019-03-21T02:58:37.785Z,103262.29
2019-03-21T03:01:06.337Z,103262.80
2019-03-21T03:03:34.867Z,103267.20
2019-03-21T03:06:03.544Z,103265.98
2019-03-21T03:08:32.084Z,103259.66
2019-03-21T03:11:03.612Z,103255.72
2019-03-21T03:13:33.184Z,103261.53
2019-03-21T03:16:01.709Z,103260.15
2019-03-21T03:18:30.556Z,103260.59
2019-03-21T03:20:59.061Z,103267.52
2019-03-21T03:23:27.581Z,103270.67
2019-03-21T03:25:56.212Z,103272.45
2019-03-21T03:28:26.906Z,103280.98
2019-03-21T03:30:57.407Z,103278.09
2019-03-21T03:33:26.018Z,103280.07
2019-03-21T03:35:54.862Z,103277.87
2019-03-21T03:38:23.407Z,103281.47
2019-03-21T03:40:54.498Z,103278.32
2019-03-21T03:43:23.157Z,103279.67
2019-03-21T03:45:51.687Z,103277.86
2019-03-21T03:48:20.430Z,103282.66
2019-03-21T03:50:48.931Z,103275.78
2019-03-21T03:53:17.605Z,103287.30
2019-03-21T03:55:46.519Z,103290.29
2019-03-21T03:58:20.698Z,103289.87
2019-03-21T04:00:49.324Z,103297.94
2019-03-21T04:03:17.922Z,103290.27
2019-03-21T04:05:46.601Z,103291.86
2019-03-21T04:08:15.225Z,103296.70
2019-03-21T04:10:48.445Z,103295.11
2019-03-21T04:13:16.982Z,103299.97
2019-03-21T04:15:52.356Z,103296.12
2019-03-21T04:18:17.550Z,103293.00
2019-03-21T04:20:49.206Z,103296.36
2019-03-21T04:23:20.218Z,103294.64
2019-03-21T04:26:00.795Z,103298.23
2019-03-21T04:28:29.485Z,103299.87
2019-03-21T04:30:58.051Z,103299.34
2019-03-21T04:33:26.661Z,103294.89
2019-03-21T04:35:55.303Z,103291.84
2019-03-21T04:38:24.148Z,103295.31
2019-03-21T04:40:52.732Z,103294.59
2019-03-21T04:43:21.869Z,103303.27
2019-03-21T04:45:50.456Z,103303.62
2019-03-21T04:48:18.992Z,103300.69
2019-03-21T04:50:47.472Z,103301.34
2019-03-21T04:53:16.032Z,103300.81
2019-03-21T04:55:44.602Z,103301.68
2019-03-21T04:58:13.111Z,103293.13
2019-03-21T05:00:44.392Z,103297.80
2019-03-21T05:03:18.297Z,103292.08
2019-03-21T05:05:46.869Z,103300.76
2019-03-21T05:08:15.412Z,103303.14
2019-03-21T05:10:43.931Z,103296.98
2019-03-21T05:13:12.462Z,103298.45
2019-03-21T05:15:51.505Z,103301.33
2019-03-21T05:18:26.090Z,103297.89
2019-03-21T05:20:54.554Z,103299.78
2019-03-21T05:23:23.132Z,103295.30
2019-03-21T05:25:51.793Z,103301.56
2019-03-21T05:28:20.363Z,103295.23
2019-03-21T05:30:51.921Z,103304.96
2019-03-21T05:33:20.455Z,103298.75
2019-03-21T05:35:49.100Z,103299.42
2019-03-21T05:38:19.204Z,103307.18
2019-03-21T05:40:47.996Z,103307.83
2019-03-21T05:43:34.548Z,103310.05
2019-03-21T05:46:03.168Z,103308.77
2019-03-21T05:48:31.719Z,103305.50
2019-03-21T05:51:00.225Z,103305.67
2019-03-21T05:53:28.809Z,103310.31
2019-03-21T05:55:57.425Z,103313.18
2019-03-21T05:58:26.011Z,103308.50
2019-03-21T06:01:00.672Z,103314.64
2019-03-21T06:03:32.790Z,103322.04
2019-03-21T06:06:04.329Z,103317.57
2019-03-21T06:08:35.844Z,103329.11
2019-03-21T06:11:04.730Z,103321.48
2019-03-21T06:13:33.369Z,103332.70
2019-03-21T06:16:08.820Z,103339.61
2019-03-21T06:18:49.160Z,103336.22
2019-03-21T06:21:35.064Z,103339.91
2019-03-21T06:24:30.750Z,103343.58
2019-03-21T06:27:28.420Z,103336.90
2019-03-21T06:29:57.008Z,103340.22
2019-03-21T06:32:26.843Z,103339.97
2019-03-21T06:34:56.473Z,103341.55
2019-03-21T06:37:28.325Z,103341.72
2019-03-21T06:39:55.816Z,103343.88
2019-03-21T06:42:24.433Z,103333.61
2019-03-21T06:44:53.018Z,103336.23
2019-03-21T06:47:21.579Z,103339.25
2019-03-21T06:49:50.106Z,103336.00
2019-03-21T06:52:18.589Z,103342.27
2019-03-21T06:54:47.094Z,103346.34
2019-03-21T06:57:15.695Z,103342.31
2019-03-21T06:59:44.212Z,103342.77
2019-03-21T07:02:12.882Z,103351.45
2019-03-21T07:04:41.355Z,103347.58
2019-03-21T07:07:09.838Z,103344.21
2019-03-21T07:09:38.467Z,103347.63
2019-03-21T07:12:07.896Z,103338.75
2019-03-21T07:14:36.638Z,103334.14
2019-03-21T07:17:05.158Z,103334.90
2019-03-21T07:19:33.704Z,103330.20
2019-03-21T07:22:02.330Z,103326.05
2019-03-21T07:24:31.081Z,103325.30
2019-03-21T07:26:59.597Z,103279.98
2019-03-21T07:29:28.241Z,103315.27
2019-03-21T07:31:56.845Z,103322.96
2019-03-21T07:34:25.543Z,103317.19
2019-03-21T07:36:54.119Z,103314.84
2019-03-21T07:39:22.695Z,103316.98
2019-03-21T07:41:51.275Z,103323.66
2019-03-21T07:44:19.820Z,103312.38
2019-03-21T07:46:48.386Z,103318.64
2019-03-21T07:49:16.972Z,103310.09
2019-03-21T07:51:45.547Z,103312.92
2019-03-21T07:54:14.006Z,103313.03
2019-03-21T07:56:43.581Z,103308.20
2019-03-21T07:59:12.212Z,103298.16
2019-03-21T08:01:40.728Z,103304.70
2019-03-21T08:04:09.280Z,103307.70
2019-03-21T08:06:37.901Z,103301.15
2019-03-21T08:09:07.903Z,103303.62
2019-03-21T08:11:36.457Z,103310.73
2019-03-21T08:14:05.345Z,103306.89
2019-03-21T08:16:33.981Z,103304.72
2019-03-21T08:19:02.605Z,103308.78
2019-03-21T08:21:31.098Z,103306.33
2019-03-21T08:23:59.692Z,103313.98
2019-03-21T08:26:28.328Z,103313.41
2019-03-21T08:28:56.996Z,103310.40
2019-03-21T08:31:25.578Z,103305.23
2019-03-21T08:33:54.163Z,103311.48
2019-03-21T08:36:22.688Z,103319.94
2019-03-21T08:38:51.232Z,103312.75
2019-03-21T08:41:19.861Z,103311.84
2019-03-21T08:43:48.528Z,103315.05
2019-03-21T08:46:17.090Z,103318.73
2019-03-21T08:48:45.696Z,103316.64
2019-03-21T08:51:14.340Z,103313.16
2019-03-21T08:53:42.921Z,103310.00
2019-03-21T08:56:11.556Z,103315.44
2019-03-21T08:58:40.640Z,103314.37
2019-03-21T09:01:09.225Z,103309.10
2019-03-21T09:03:37.790Z,103316.63
2019-03-21T09:06:06.405Z,103306.23
2019-03-21T09:08:35.037Z,103308.25
2019-03-21T09:11:03.679Z,103307.39
2019-03-21T09:13:32.229Z,103309.35
2019-03-21T09:16:01.676Z,103302.80
2019-03-21T09:18:30.304Z,103307.69
2019-03-21T09:20:58.927Z,103309.88
2019-03-21T09:23:27.489Z,103310.72
2019-03-21T09:25:56.164Z,103311.80
2019-03-21T09:28:24.752Z,103312.39
2019-03-21T09:30:53.414Z,103307.64
2019-03-21T09:33:21.974Z,103310.72
2019-03-21T09:35:50.556Z,103302.99
2019-03-21T09:38:19.150Z,103307.25
2019-03-21T09:40:47.844Z,103308.25
2019-03-21T09:43:16.507Z,103312.36
2019-03-21T09:45:45.119Z,103309.32
2019-03-21T09:48:13.714Z,103312.83
2019-03-21T09:50:42.331Z,103311.41
2019-03-21T09:53:10.933Z,103308.50
2019-03-21T09:55:39.509Z,103305.59
2019-03-21T09:58:08.033Z,103300.28
2019-03-21T10:00:38.042Z,103300.64
2019-03-21T10:03:07.064Z,103297.46
2019-03-21T10:05:35.684Z,103299.27
2019-03-21T10:08:04.896Z,103296.38
2019-03-21T10:10:34.426Z,103290.19
2019-03-21T10:13:03.308Z,103293.92
2019-03-21T10:15:31.932Z,103288.00
2019-03-21T10:18:00.531Z,103294.14
2019-03-21T10:20:29.333Z,103290.48
2019-03-21T10:22:57.956Z,103298.08
2019-03-21T10:25:26.994Z,103294.69
2019-03-21T10:27:55.798Z,103294.55
2019-03-21T10:30:38.597Z,103294.83
2019-03-21T10:33:09.740Z,103295.08
2019-03-21T10:35:38.433Z,103296.56
2019-03-21T10:38:07.869Z,103289.75
2019-03-21T10:40:36.838Z,103289.77
2019-03-21T10:43:06.281Z,103284.39
2019-03-21T10:45:34.954Z,103280.65
2019-03-21T10:48:03.618Z,103277.85
2019-03-21T10:50:36.855Z,103280.59
2019-03-21T10:53:06.040Z,103275.41
2019-03-21T10:55:34.728Z,103276.68
2019-03-21T10:58:03.339Z,103272.81
2019-03-21T11:00:31.954Z,103283.02
2019-03-21T11:03:00.585Z,103282.40
2019-03-21T11:05:29.178Z,103279.83
2019-03-21T11:07:57.702Z,103279.06
2019-03-21T11:10:26.332Z,103272.61
2019-03-21T11:12:54.964Z,103277.91
2019-03-21T11:15:23.659Z,103279.78
2019-03-21T11:17:52.400Z,103275.05
2019-03-21T11:20:29.897Z,103274.55
2019-03-21T11:22:58.435Z,103272.45
2019-03-21T11:25:27.184Z,103263.64
2019-03-21T11:27:55.830Z,103272.12
2019-03-21T11:30:35.854Z,103267.05
2019-03-21T11:33:05.089Z,103261.45
2019-03-21T11:35:34.085Z,103260.20
2019-03-21T11:38:02.690Z,103255.25
2019-03-21T11:40:31.294Z,103250.64
2019-03-21T11:43:00.288Z,103253.29
2019-03-21T11:45:28.880Z,103252.61
2019-03-21T11:47:59.693Z,103249.61
2019-03-21T11:50:28.029Z,103247.50
2019-03-21T11:52:56.619Z,103244.86
2019-03-21T11:55:25.267Z,103246.48
2019-03-21T11:57:53.875Z,103246.05
2019-03-21T12:00:22.579Z,103233.63
2019-03-21T12:02:51.173Z,103236.37
2019-03-21T12:05:19.816Z,103227.38
2019-03-21T12:07:48.293Z,103233.77
2019-03-21T12:10:17.229Z,103234.14
2019-03-21T12:12:45.854Z,103230.73
2019-03-21T12:15:14.877Z,103229.31
2019-03-21T12:17:43.504Z,103217.69
2019-03-21T12:20:29.438Z,103215.50
2019-03-21T12:22:58.064Z,103216.34
2019-03-21T12:25:26.750Z,103212.86
2019-03-21T12:27:55.384Z,103217.41
2019-03-21T12:30:32.852Z,103208.95
2019-03-21T12:33:02.139Z,103202.73
2019-03-21T12:35:31.712Z,103201.46
2019-03-21T12:38:00.328Z,103200.45
2019-03-21T12:40:29.131Z,103196.75
2019-03-21T12:42:57.765Z,103197.64
2019-03-21T12:45:26.395Z,103187.22
2019-03-21T12:47:54.998Z,103185.55
2019-03-21T12:50:23.625Z,103188.33
2019-03-21T12:52:52.212Z,103175.75
2019-03-21T12:55:20.795Z,103167.84
2019-03-21T12:57:49.409Z,103163.72
2019-03-21T13:00:23.470Z,103164.16
2019-03-21T13:02:52.160Z,103164.89
2019-03-21T13:05:31.099Z,103161.97
2019-03-21T13:07:59.661Z,103155.94
2019-03-21T13:10:28.219Z,103161.52
2019-03-21T13:12:56.880Z,103156.88
2019-03-21T13:15:30.255Z,103161.02
2019-03-21T13:17:56.109Z,103156.66
2019-03-21T13:20:24.708Z,103152.20
2019-03-21T13:22:53.981Z,103152.36
2019-03-21T13:25:22.740Z,103137.44
2019-03-21T13:27:51.289Z,103134.64
2019-03-21T13:30:19.894Z,103132.92
2019-03-21T13:32:48.492Z,103132.78
2019-03-21T13:35:17.094Z,103131.78
2019-03-21T13:37:45.663Z,103130.32
2019-03-21T13:40:14.351Z,103139.35
2019-03-21T13:42:43.849Z,103128.23
2019-03-21T13:45:12.645Z,103125.47
2019-03-21T13:47:41.276Z,103128.08
2019-03-21T13:50:10.264Z,103119.61
2019-03-21T13:52:38.852Z,103120.51
2019-03-21T13:55:08.279Z,103115.95
2019-03-21T13:57:36.918Z,103113.88
2019-03-21T14:00:08.354Z,103114.83
2019-03-21T14:02:36.837Z,103110.75
2019-03-21T14:05:07.624Z,103113.97
2019-03-21T14:07:36.229Z,103111.78
2019-03-21T14:10:06.900Z,103104.33
2019-03-21T14:12:35.598Z,103104.11
2019-03-21T14:15:06.217Z,103103.68
2019-03-21T14:17:34.759Z,103098.83
2019-03-21T14:20:03.615Z,103091.37
2019-03-21T14:22:32.174Z,103087.89
2019-03-21T14:25:00.740Z,103090.52
2019-03-21T14:27:29.390Z,103088.42
2019-03-21T14:30:01.824Z,103083.33
2019-03-21T14:32:28.834Z,103076.88
2019-03-21T14:34:57.454Z,103077.91
2019-03-21T14:37:26.075Z,103078.63
2019-03-21T14:39:55.564Z,103075.48
2019-03-21T14:42:24.141Z,103067.68
2019-03-21T14:44:52.578Z,103076.38
2019-03-21T14:47:21.237Z,103065.00
2019-03-21T14:49:49.868Z,103072.11
2019-03-21T14:52:18.454Z,103068.14
2019-03-21T14:54:47.027Z,103059.42
2019-03-21T14:57:16.680Z,103061.48
2019-03-21T14:59:45.303Z,103064.78
2019-03-21T15:02:13.840Z,103064.20
2019-03-21T15:04:42.341Z,103057.09
2019-03-21T15:07:10.933Z,103045.58
2019-03-21T15:09:39.550Z,103049.83
2019-03-21T15:12:08.330Z,103044.25
2019-03-21T15:14:36.822Z,103038.48
2019-03-21T15:17:05.554Z,103040.79
2019-03-21T15:19:34.067Z,103040.26
2019-03-21T15:22:02.697Z,103038.72
2019-03-21T15:24:31.247Z,103041.86
2019-03-21T15:26:59.907Z,103039.72
2019-03-21T15:29:28.429Z,103041.80
2019-03-21T15:31:57.175Z,103034.45
2019-03-21T15:34:25.786Z,103038.80
2019-03-21T15:36:54.406Z,103037.74
2019-03-21T15:39:23.085Z,103031.40
2019-03-21T15:41:51.621Z,103032.70
2019-03-21T15:44:20.152Z,103026.93
2019-03-21T15:46:48.724Z,103032.03
2019-03-21T15:49:17.351Z,103029.70
2019-03-21T15:51:45.878Z,103030.55
2019-03-21T15:54:15.236Z,103027.80
2019-03-21T15:56:43.924Z,103029.16
2019-03-21T15:59:12.627Z,103033.33
2019-03-21T16:01:41.221Z,103042.72
2019-03-21T16:04:09.848Z,103028.43
2019-03-21T16:06:38.379Z,103023.63
2019-03-21T16:09:07.523Z,103029.87
2019-03-21T16:11:36.219Z,103024.23
2019-03-21T16:14:04.847Z,103030.89
2019-03-21T16:16:33.393Z,103028.17
2019-03-21T16:19:01.978Z,103022.60
2019-03-21T16:21:30.518Z,103024.33
2019-03-21T16:24:04.969Z,103024.95
2019-03-21T16:26:29.331Z,103018.26
2019-03-21T16:28:57.903Z,103023.02
2019-03-21T16:31:26.615Z,103018.98
2019-03-21T16:33:55.131Z,103025.06
2019-03-21T16:36:23.719Z,103030.70
2019-03-21T16:38:52.353Z,103028.78
2019-03-21T16:41:20.943Z,103027.14
2019-03-21T16:43:49.488Z,103025.06
2019-03-21T16:46:18.031Z,103028.48
2019-03-21T16:48:46.509Z,103027.52
2019-03-21T16:51:15.158Z,103023.78
2019-03-21T16:53:44.086Z,103018.80
2019-03-21T16:56:12.641Z,103021.38
2019-03-21T16:58:41.136Z,103020.30
2019-03-21T17:01:09.839Z,103021.45
2019-03-21T17:03:38.404Z,103020.95
2019-03-21T17:06:07.010Z,103018.80
2019-03-21T17:08:35.592Z,103023.98
2019-03-21T17:11:04.283Z,103024.41
2019-03-21T17:13:32.829Z,103022.13
2019-03-21T17:16:01.475Z,103019.17
2019-03-21T17:18:30.044Z,103020.00
2019-03-21T17:20:58.557Z,103023.68
2019-03-21T17:23:27.113Z,103023.42
2019-03-21T17:25:55.704Z,103021.85
2019-03-21T17:28:24.280Z,103028.09
2019-03-21T17:30:52.878Z,103028.09
2019-03-21T17:33:21.683Z,103033.84
2019-03-21T17:35:50.141Z,103029.77
2019-03-21T17:38:18.762Z,103026.59
2019-03-21T17:40:47.448Z,103029.28
2019-03-21T17:43:16.047Z,103027.55
2019-03-21T17:45:45.478Z,103026.23
2019-03-21T17:48:14.086Z,103023.09
2019-03-21T17:50:42.814Z,103023.41
2019-03-21T17:53:11.444Z,103024.95
2019-03-21T17:55:39.934Z,103035.00
2019-03-21T17:58:08.486Z,103032.50
2019-03-21T18:00:37.310Z,103043.97
2019-03-21T18:03:07.738Z,103042.31
2019-03-21T18:05:36.337Z,103043.95
2019-03-21T18:08:05.080Z,103044.25
2019-03-21T18:10:36.725Z,103050.16
2019-03-21T18:13:05.867Z,103054.11
2019-03-21T18:15:34.446Z,103052.27
2019-03-21T18:18:03.036Z,103057.50
2019-03-21T18:20:31.818Z,103053.00
2019-03-21T18:23:00.425Z,103060.30
2019-03-21T18:25:29.104Z,103061.70
2019-03-21T18:27:57.735Z,103070.79
2019-03-21T18:30:26.311Z,103065.44
2019-03-21T18:32:54.828Z,103068.91
2019-03-21T18:35:23.595Z,103067.22
2019-03-21T18:37:52.189Z,103065.51
2019-03-21T18:40:21.528Z,103069.02
2019-03-21T18:42:50.197Z,103074.26
2019-03-21T18:45:18.985Z,103083.33
2019-03-21T18:47:47.567Z,103077.09
2019-03-21T18:50:16.956Z,103076.51
2019-03-21T18:52:45.527Z,103078.08
2019-03-21T18:55:14.285Z,103081.84
2019-03-21T18:57:42.789Z,103085.03
2019-03-21T19:00:21.293Z,103083.98
2019-03-21T19:02:50.426Z,103088.17
2019-03-21T19:05:19.036Z,103083.61
2019-03-21T19:07:47.741Z,103084.45
2019-03-21T19:10:16.862Z,103083.75
2019-03-21T19:12:45.469Z,103093.36
2019-03-21T19:15:16.137Z,103089.99
2019-03-21T19:17:44.712Z,103090.34
2019-03-21T19:20:15.623Z,103087.23
2019-03-21T19:22:44.224Z,103086.52
2019-03-21T19:25:18.646Z,103080.70
2019-03-21T19:27:43.849Z,103085.60
2019-03-21T19:30:17.669Z,103083.18
2019-03-21T19:32:46.333Z,103089.39
2019-03-21T19:35:15.279Z,103088.94
2019-03-21T19:37:43.838Z,103085.06
2019-03-21T19:40:17.868Z,103083.14
2019-03-21T19:42:46.764Z,103089.53
2019-03-21T19:45:17.431Z,103089.19
2019-03-21T19:47:46.037Z,103086.84
2019-03-21T19:50:19.855Z,103090.98
2019-03-21T19:52:48.656Z,103096.61
2019-03-21T19:55:25.825Z,103100.87
2019-03-21T19:57:47.706Z,103094.28
2019-03-21T20:00:19.078Z,103093.73
2019-03-21T20:02:48.594Z,103095.91
2019-03-21T20:05:17.225Z,103094.48
2019-03-21T20:07:45.886Z,103100.05
2019-03-21T20:10:20.103Z,103104.81
2019-03-21T20:12:48.753Z,103109.98
2019-03-21T20:15:18.835Z,103100.64
2019-03-21T20:17:47.479Z,103098.09
2019-03-21T20:20:17.178Z,103097.68
2019-03-21T20:22:45.887Z,103105.84
2019-03-21T20:25:14.510Z,103098.45
2019-03-21T20:27:43.131Z,103096.38
2019-03-21T20:30:17.052Z,103094.09
2019-03-21T20:32:45.688Z,103092.77
2019-03-21T20:35:14.274Z,103092.73
2019-03-21T20:37:43.064Z,103093.58
2019-03-21T20:40:17.249Z,103088.02
2019-03-21T20:42:45.884Z,103092.90
2019-03-21T20:45:16.386Z,103084.14
2019-03-21T20:47:45.078Z,103091.05
2019-03-21T20:50:14.024Z,103098.25
2019-03-21T20:52:42.647Z,103094.55
2019-03-21T20:55:11.571Z,103091.91
2019-03-21T20:57:40.221Z,103090.92
2019-03-21T21:00:17.945Z,103093.17
2019-03-21T21:02:46.573Z,103090.47
2019-03-21T21:05:15.728Z,103095.16
2019-03-21T21:07:44.426Z,103091.66
2019-03-21T21:10:14.351Z,103092.48
2019-03-21T21:12:43.258Z,103087.34
2019-03-21T21:15:16.227Z,103093.63
2019-03-21T21:17:44.867Z,103091.44
2019-03-21T21:20:16.015Z,103084.36
2019-03-21T21:22:44.642Z,103081.66
2019-03-21T21:25:14.041Z,103077.81
2019-03-21T21:27:49.337Z,103085.45
2019-03-21T21:30:15.759Z,103084.37
2019-03-21T21:32:44.586Z,103085.70
2019-03-21T21:35:13.346Z,103082.16
2019-03-21T21:37:41.990Z,103083.52
2019-03-21T21:40:12.327Z,103082.72
2019-03-21T21:42:41.018Z,103082.72
2019-03-21T21:45:12.245Z,103082.72
2019-03-21T21:47:40.868Z,103084.08
2019-03-21T21:50:12.428Z,103084.63
2019-03-21T21:52:42.131Z,103087.34
2019-03-21T21:55:11.410Z,103088.98
2019-03-21T21:57:40.003Z,103087.89
2019-03-21T22:00:17.326Z,103088.44
2019-03-21T22:02:45.925Z,103078.63
2019-03-21T22:05:14.514Z,103078.63
2019-03-21T22:07:43.217Z,103083.25
2019-03-21T22:10:11.906Z,103082.98
2019-03-21T22:12:40.462Z,103081.88
2019-03-21T22:15:13.781Z,103075.91
2019-03-21T22:17:42.671Z,103081.10
2019-03-21T22:20:15.967Z,103084.63
2019-03-21T22:22:44.701Z,103083.81
2019-03-21T22:25:13.405Z,103075.62
2019-03-21T22:27:43.140Z,103074.53
2019-03-21T22:30:21.327Z,103077.25
2019-03-21T22:32:49.919Z,103073.95
2019-03-21T22:35:18.555Z,103083.49
2019-03-21T22:37:47.033Z,103079.14
2019-03-21T22:40:17.695Z,103074.27
2019-03-21T22:42:46.325Z,103071.53
2019-03-21T22:45:19.284Z,103070.16
2019-03-21T22:47:50.345Z,103071.50
2019-03-21T22:50:18.464Z,103063.05
2019-03-21T22:52:47.110Z,103064.94
2019-03-21T22:55:15.805Z,103064.36
2019-03-21T22:57:44.387Z,103062.16
2019-03-21T23:00:15.833Z,103065.12
2019-03-21T23:02:44.607Z,103063.38
2019-03-21T23:05:13.835Z,103061.94
2019-03-21T23:07:42.425Z,103067.66
2019-03-21T23:10:11.719Z,103066.80
2019-03-21T23:12:40.460Z,103063.58
2019-03-21T23:15:10.372Z,103057.87
2019-03-21T23:17:39.258Z,103059.77
2019-03-21T23:20:10.364Z,103059.46
2019-03-21T23:22:39.133Z,103057.87
2019-03-21T23:25:08.745Z,103056.00
2019-03-21T23:27:37.982Z,103058.75
2019-03-21T23:30:12.309Z,103051.95
2019-03-21T23:32:40.930Z,103048.62
2019-03-21T23:35:10.512Z,103055.11
2019-03-21T23:37:39.230Z,103051.22
2019-03-21T23:40:15.293Z,103053.05
2019-03-21T23:42:44.153Z,103047.06
2019-03-21T23:45:14.504Z,103048.42
2019-03-21T23:47:43.118Z,103046.10
2019-03-21T23:50:14.658Z,103043.22
2019-03-21T23:52:43.295Z,103042.40
2019-03-21T23:55:12.415Z,103033.63
2019-03-21T23:57:40.965Z,103030.56
